createdAt,value
2022-09-05T00:00:03.159Z,100.00
2022-09-05T00:02:49.539Z,100.00
2022-09-05T00:05:26.194Z,100.00
2022-09-05T00:08:02.365Z,100.00
2022-09-05T00:11:12.775Z,100.00
2022-09-05T00:13:36.464Z,100.00
2022-09-05T00:16:30.155Z,100.00
2022-09-05T00:24:18.693Z,100.00
2022-09-05T00:24:34.657Z,100.00
2022-09-05T00:25:28.223Z,100.00
2022-09-05T00:28:25.131Z,100.00
2022-09-05T00:31:54.043Z,100.00
2022-09-05T00:34:18.552Z,100.00
2022-09-05T00:36:48.546Z,100.00
2022-09-05T00:39:21.065Z,100.00
2022-09-05T00:41:50.607Z,100.00
2022-09-05T00:44:23.491Z,100.00
2022-09-05T00:46:59.516Z,100.00
2022-09-05T00:49:37.152Z,100.00
2022-09-05T00:52:13.041Z,100.00
2022-09-05T00:55:08.802Z,100.00
2022-09-05T00:58:12.174Z,100.00
2022-09-05T01:00:52.961Z,100.00
2022-09-05T01:03:33.798Z,100.00
2022-09-05T01:06:18.325Z,100.00
2022-09-05T01:09:08.197Z,100.00
2022-09-05T01:11:46.511Z,100.00
2022-09-05T01:14:28.857Z,100.00
2022-09-05T01:17:16.057Z,100.00
2022-09-05T01:20:04.783Z,100.00
2022-09-05T01:23:10.258Z,100.00
2022-09-05T01:25:54.889Z,100.00
2022-09-05T01:29:16.678Z,100.00
2022-09-05T01:31:28.993Z,100.00
2022-09-05T01:34:06.769Z,100.00
2022-09-05T01:36:55.692Z,100.00
2022-09-05T01:40:15.354Z,100.00
2022-09-05T01:42:37.990Z,100.00
2022-09-05T01:45:16.035Z,100.00
2022-09-05T01:47:52.921Z,100.00
2022-09-05T01:50:35.573Z,100.00
2022-09-05T01:53:26.439Z,100.00
2022-09-05T01:56:10.069Z,100.00
2022-09-05T01:58:50.533Z,100.00
2022-09-05T02:01:32.899Z,100.00
2022-09-05T02:04:23.871Z,100.00
2022-09-05T02:07:19.424Z,100.00
2022-09-05T02:10:17.223Z,100.00
2022-09-05T02:12:54.448Z,100.00
2022-09-05T02:15:41.941Z,100.00
2022-09-05T02:18:23.389Z,100.00
2022-09-05T02:20:57.846Z,100.00
2022-09-05T02:23:41.581Z,100.00
2022-09-05T02:26:18.514Z,100.00
2022-09-05T02:28:53.918Z,100.00
2022-09-05T02:31:28.343Z,100.00
2022-09-05T02:34:01.886Z,100.00
2022-09-05T02:36:40.814Z,100.00
2022-09-05T02:45:01.726Z,100.00
2022-09-05T02:45:15.329Z,100.00
2022-09-05T02:45:31.113Z,100.00
2022-09-05T02:48:14.829Z,100.00
2022-09-05T02:57:29.199Z,100.00
2022-09-05T02:57:34.739Z,100.00
2022-09-05T02:57:38.557Z,100.00
2022-09-05T02:59:49.604Z,100.00
2022-09-05T03:02:27.641Z,100.00
2022-09-05T03:05:05.420Z,100.00
2022-09-05T03:08:09.116Z,100.00
2022-09-05T03:11:05.026Z,100.00
2022-09-05T03:13:54.386Z,100.00
2022-09-05T03:17:26.794Z,100.00
2022-09-05T03:20:38.985Z,100.00
2022-09-05T03:23:33.182Z,100.00
2022-09-05T03:26:33.711Z,100.00
2022-09-05T03:29:30.517Z,100.00
2022-09-05T03:32:42.106Z,100.00
2022-09-05T03:35:56.350Z,100.00
2022-09-05T03:39:02.483Z,100.00
2022-09-05T03:41:49.263Z,100.00
2022-09-05T03:44:41.440Z,100.00
2022-09-05T03:47:22.249Z,100.00
2022-09-05T03:56:20.281Z,100.00
2022-09-05T03:57:19.945Z,100.00
2022-09-05T03:57:28.164Z,100.00
2022-09-05T04:00:08.656Z,100.00
2022-09-05T04:08:09.003Z,100.00
2022-09-05T04:08:16.191Z,100.00
2022-09-05T04:08:48.925Z,100.00
2022-09-05T04:11:20.112Z,100.00
2022-09-05T04:13:52.497Z,100.00
2022-09-05T04:16:26.325Z,100.00
2022-09-05T04:18:57.810Z,100.00
2022-09-05T04:21:30.523Z,100.00
2022-09-05T04:24:07.205Z,100.00
2022-09-05T04:27:00.995Z,100.00
2022-09-05T04:29:42.757Z,100.00
2022-09-05T04:32:24.866Z,100.00
2022-09-05T04:35:23.589Z,100.00
2022-09-05T04:37:58.710Z,100.00
2022-09-05T04:40:40.109Z,100.00
2022-09-05T04:43:11.415Z,100.00
2022-09-05T04:45:42.969Z,100.00
2022-09-05T04:48:21.350Z,100.00
2022-09-05T04:51:11.699Z,100.00
2022-09-05T04:54:00.471Z,100.00
2022-09-05T04:56:32.238Z,100.00
2022-09-05T05:01:36.543Z,100.00
2022-09-05T05:06:02.698Z,100.00
2022-09-05T05:06:14.276Z,100.00
2022-09-05T05:07:42.028Z,100.00
2022-09-05T05:13:55.327Z,100.00
2022-09-05T05:18:07.470Z,100.00
2022-09-05T05:18:11.990Z,100.00
2022-09-05T05:19:18.860Z,100.00
2022-09-05T05:21:51.822Z,100.00
2022-09-05T05:24:24.946Z,100.00
2022-09-05T05:26:59.741Z,100.00
2022-09-05T05:29:38.171Z,100.00
2022-09-05T05:32:08.294Z,100.00
2022-09-05T05:34:42.727Z,100.00
2022-09-05T05:37:20.084Z,100.00
2022-09-05T05:39:59.309Z,100.00
2022-09-05T05:42:27.224Z,100.00
2022-09-05T05:44:58.429Z,100.00
2022-09-05T05:47:32.110Z,100.00
2022-09-05T11:54:57.815Z,83.05
2022-09-05T11:57:38.718Z,85.07
2022-09-05T12:00:31.091Z,82.26
2022-09-05T12:03:58.175Z,81.69
2022-09-05T12:06:49.535Z,78.23
2022-09-05T12:09:34.447Z,81.90
2022-09-05T12:12:38.527Z,81.24
2022-09-05T12:15:26.272Z,85.75
2022-09-05T12:18:27.023Z,85.82
2022-09-05T12:21:17.476Z,83.70
2022-09-05T12:24:26.364Z,85.12
2022-09-05T12:27:39.426Z,83.40
2022-09-05T12:34:35.611Z,84.59
2022-09-05T12:36:04.558Z,82.39
2022-09-05T12:41:32.538Z,84.70
2022-09-05T12:42:09.539Z,86.20
2022-09-05T12:42:10.927Z,82.71
2022-09-05T12:45:09.045Z,80.01
2022-09-05T12:47:59.540Z,83.57
2022-09-05T12:50:35.275Z,84.80
2022-09-05T12:53:08.965Z,81.74
2022-09-05T12:55:41.567Z,82.07
2022-09-05T13:02:57.756Z,84.69
2022-09-05T13:03:06.703Z,82.65
2022-09-05T13:04:26.589Z,82.71
2022-09-05T13:07:05.602Z,83.45
2022-09-05T13:10:04.711Z,84.02
2022-09-05T13:14:53.958Z,82.27
2022-09-05T13:15:27.003Z,80.29
2022-09-05T13:18:02.771Z,81.69
2022-09-05T13:20:36.776Z,78.06
2022-09-05T13:23:21.797Z,77.27
2022-09-05T13:25:58.382Z,77.93
2022-09-05T13:28:30.297Z,77.25
2022-09-05T13:33:40.146Z,81.75
2022-09-05T13:37:59.532Z,79.74
2022-09-05T13:38:10.026Z,79.13
2022-09-05T13:39:48.985Z,76.51
2022-09-05T13:42:20.761Z,78.97
2022-09-05T13:44:53.894Z,78.37
2022-09-05T13:47:41.107Z,77.50
2022-09-05T13:50:23.082Z,76.02
2022-09-05T13:52:56.571Z,75.80
2022-09-05T13:55:33.453Z,80.49
2022-09-05T13:58:07.360Z,76.40
2022-09-05T14:01:17.504Z,72.02
2022-09-05T14:07:45.082Z,75.56
2022-09-05T14:10:43.517Z,78.12
2022-09-05T14:13:18.842Z,76.93
2022-09-05T14:15:53.164Z,76.51
2022-09-05T14:18:24.119Z,75.45
2022-09-05T14:21:15.724Z,74.22
2022-09-05T14:23:53.507Z,75.15
2022-09-05T14:26:28.092Z,72.83
2022-09-05T14:29:05.973Z,74.17
2022-09-05T14:37:39.989Z,74.11
2022-09-05T14:37:49.417Z,71.13
2022-09-05T14:38:14.657Z,70.43
2022-09-05T14:41:07.422Z,67.86
2022-09-05T14:44:11.081Z,66.87
2022-09-05T14:47:05.008Z,70.80
2022-09-05T14:50:07.167Z,72.07
2022-09-05T14:52:43.505Z,75.90
2022-09-05T15:02:44.208Z,80.34
2022-09-05T15:02:57.692Z,78.17
2022-09-05T15:06:34.495Z,75.91
2022-09-05T15:12:18.206Z,73.49
2022-09-05T15:12:23.001Z,71.86
2022-09-05T15:14:52.338Z,69.45
2022-09-05T15:17:24.226Z,71.44
2022-09-05T15:20:06.638Z,71.66
2022-09-05T15:22:37.434Z,70.81
2022-09-05T15:25:18.106Z,73.75
2022-09-05T15:27:46.603Z,77.40
2022-09-05T15:30:21.626Z,73.65
2022-09-05T15:32:50.809Z,73.24
2022-09-05T15:35:36.563Z,67.26
2022-09-05T15:38:55.247Z,69.42
2022-09-05T15:41:25.632Z,68.70
2022-09-05T15:44:03.279Z,65.78
2022-09-05T15:46:51.312Z,69.63
2022-09-05T15:49:28.270Z,68.05
2022-09-05T15:51:58.255Z,68.53
2022-09-05T15:54:37.684Z,68.62
2022-09-05T15:57:15.281Z,66.85
2022-09-05T15:59:48.155Z,66.03
2022-09-05T16:02:21.706Z,70.00
2022-09-05T16:08:21.758Z,71.45
2022-09-05T16:10:40.811Z,69.93
2022-09-05T16:11:18.726Z,70.42
2022-09-05T16:13:39.691Z,70.43
2022-09-05T16:23:28.821Z,71.20
2022-09-05T16:23:28.979Z,74.83
2022-09-05T16:23:30.083Z,72.96
2022-09-05T16:24:59.506Z,70.24
2022-09-05T16:27:49.739Z,73.07
2022-09-05T16:30:22.982Z,74.94
2022-09-05T16:32:55.007Z,75.25
2022-09-05T16:35:26.692Z,74.62
2022-09-05T16:38:02.100Z,75.82
2022-09-05T16:40:32.591Z,76.91
2022-09-05T16:43:10.033Z,78.35
2022-09-05T16:45:45.576Z,77.93
2022-09-05T16:48:28.094Z,78.50
2022-09-05T16:51:15.194Z,78.17
2022-09-05T16:53:57.976Z,78.76
2022-09-05T16:56:31.749Z,80.08
2022-09-05T16:59:03.824Z,79.52
2022-09-05T17:02:05.691Z,79.53
2022-09-05T17:05:03.099Z,78.60
2022-09-05T17:07:51.664Z,79.51
2022-09-05T17:10:24.235Z,81.12
2022-09-05T17:12:52.523Z,81.55
2022-09-05T17:15:23.549Z,81.75
2022-09-05T17:18:21.558Z,82.76
2022-09-05T17:20:49.505Z,83.58
2022-09-05T17:27:08.330Z,87.26
2022-09-05T17:29:27.747Z,87.27
2022-09-05T17:29:42.214Z,90.75
2022-09-05T17:32:00.166Z,88.82
2022-09-05T17:34:46.722Z,89.70
2022-09-05T17:37:42.852Z,93.46
2022-09-05T17:40:37.982Z,94.90
2022-09-05T17:43:10.863Z,95.13
2022-09-05T17:45:53.257Z,97.47
2022-09-05T17:49:16.192Z,99.56
2022-09-05T17:52:20.573Z,100.00
2022-09-05T17:54:52.222Z,100.00
2022-09-05T17:57:41.070Z,100.00
2022-09-05T18:00:47.278Z,100.00
2022-09-05T18:04:17.024Z,100.00
2022-09-05T18:07:00.494Z,100.00
2022-09-05T18:10:12.938Z,100.00
2022-09-05T18:13:14.182Z,100.00
2022-09-05T18:16:11.996Z,100.00
2022-09-05T18:19:32.159Z,100.00
2022-09-05T18:21:48.457Z,100.00
2022-09-05T18:24:24.730Z,100.00
2022-09-05T18:27:43.918Z,100.00
2022-09-05T18:30:07.926Z,100.00
2022-09-05T18:32:42.027Z,100.00
2022-09-05T18:35:32.437Z,100.00
2022-09-05T18:38:51.641Z,100.00
2022-09-05T18:41:23.156Z,100.00
2022-09-05T18:44:13.851Z,100.00
2022-09-05T18:46:49.130Z,100.00
2022-09-05T18:50:25.090Z,100.00
2022-09-05T18:52:23.345Z,100.00
2022-09-05T18:56:09.147Z,100.00
2022-09-05T18:57:51.777Z,100.00
2022-09-05T19:00:43.933Z,100.00
2022-09-05T19:03:24.967Z,100.00
2022-09-05T19:06:00.555Z,100.00
2022-09-05T19:08:48.708Z,100.00
2022-09-05T19:11:28.932Z,100.00
2022-09-05T19:14:25.776Z,100.00
2022-09-05T19:16:49.652Z,100.00
2022-09-05T19:19:24.768Z,100.00
2022-09-05T19:22:10.419Z,100.00
2022-09-05T19:24:45.629Z,100.00
2022-09-05T19:29:00.035Z,100.00
2022-09-05T19:36:48.762Z,100.00
2022-09-05T19:36:51.696Z,100.00
2022-09-05T19:37:22.779Z,100.00
2022-09-05T19:38:42.119Z,100.00
2022-09-05T19:47:26.966Z,100.00
2022-09-05T19:47:38.546Z,100.00
2022-09-05T19:47:49.802Z,100.00
2022-09-05T19:50:11.870Z,100.00
2022-09-05T19:52:41.276Z,100.00
2022-09-05T19:55:21.878Z,100.00
2022-09-05T19:57:52.733Z,100.00
2022-09-05T20:00:42.485Z,100.00
2022-09-05T20:03:23.541Z,100.00
2022-09-05T20:05:52.013Z,100.00
2022-09-05T20:08:33.677Z,100.00
2022-09-05T20:11:02.475Z,100.00
2022-09-05T20:13:30.160Z,100.00
2022-09-05T20:16:01.235Z,100.00
2022-09-05T20:18:44.044Z,100.00
2022-09-05T20:21:13.875Z,100.00
2022-09-05T20:23:49.139Z,100.00
2022-09-05T20:26:18.402Z,100.00
2022-09-05T20:28:52.728Z,100.00
2022-09-05T20:31:28.294Z,100.00
2022-09-05T20:34:27.548Z,100.00
2022-09-05T20:43:14.456Z,100.00
2022-09-05T20:43:29.407Z,100.00
2022-09-05T20:43:29.713Z,100.00
2022-09-05T20:45:46.276Z,100.00
2022-09-05T20:54:08.194Z,100.00
2022-09-05T20:54:19.246Z,100.00
2022-09-05T20:54:31.784Z,100.00
2022-09-05T20:56:57.802Z,100.00
2022-09-05T20:59:31.816Z,100.00
2022-09-05T21:02:01.475Z,100.00
2022-09-05T21:04:32.994Z,100.00
2022-09-05T21:07:13.304Z,100.00
2022-09-05T21:09:56.080Z,100.00
2022-09-05T21:12:28.436Z,100.00
2022-09-05T21:15:28.359Z,100.00
2022-09-05T21:18:03.497Z,100.00
2022-09-05T21:20:33.196Z,100.00
2022-09-05T21:23:00.985Z,100.00
2022-09-05T21:25:43.786Z,100.00
2022-09-05T21:28:36.636Z,100.00
2022-09-05T21:31:10.592Z,100.00
2022-09-05T21:33:45.880Z,100.00
2022-09-05T21:36:15.926Z,100.00
2022-09-05T21:38:44.467Z,100.00
2022-09-05T21:41:14.398Z,100.00
2022-09-05T21:47:37.836Z,100.00
2022-09-05T21:47:47.917Z,100.00
2022-09-05T21:49:23.267Z,100.00
2022-09-05T21:51:51.780Z,100.00
2022-09-05T21:57:16.891Z,100.00
2022-09-05T21:59:19.176Z,100.00
2022-09-05T22:00:10.953Z,100.00
2022-09-05T22:02:49.623Z,100.00
2022-09-05T22:05:17.849Z,100.00
2022-09-05T22:07:45.582Z,100.00
2022-09-05T22:10:13.260Z,100.00
2022-09-05T22:12:41.004Z,100.00
2022-09-05T22:15:28.547Z,100.00
2022-09-05T22:18:16.648Z,100.00
2022-09-05T22:20:51.795Z,100.00
2022-09-05T22:23:39.459Z,100.00
2022-09-05T22:26:07.736Z,100.00
2022-09-05T22:28:38.802Z,100.00
2022-09-05T22:31:08.663Z,100.00
2022-09-05T22:33:36.569Z,100.00
2022-09-05T22:36:04.328Z,100.00
2022-09-05T22:38:32.534Z,100.00
2022-09-05T22:41:00.284Z,100.00
2022-09-05T22:43:28.147Z,100.00
2022-09-05T22:45:56.519Z,100.00
2022-09-05T22:48:25.664Z,100.00
2022-09-05T22:50:53.430Z,100.00
2022-09-05T22:53:21.330Z,100.00
2022-09-05T22:55:57.406Z,100.00
2022-09-05T22:58:25.334Z,100.00
2022-09-05T23:00:53.369Z,100.00
2022-09-05T23:03:21.300Z,100.00
2022-09-05T23:05:50.324Z,100.00
2022-09-05T23:08:18.049Z,100.00
2022-09-05T23:10:45.705Z,100.00
2022-09-05T23:13:13.572Z,100.00
2022-09-05T23:15:41.403Z,100.00
2022-09-05T23:18:09.104Z,100.00
2022-09-05T23:20:36.805Z,100.00
2022-09-05T23:23:07.427Z,100.00
2022-09-05T23:25:36.198Z,100.00
2022-09-05T23:28:06.645Z,100.00
2022-09-05T23:30:34.615Z,100.00
2022-09-05T23:33:02.300Z,100.00
2022-09-05T23:35:30.391Z,100.00
2022-09-05T23:37:58.045Z,100.00
2022-09-05T23:40:27.216Z,100.00
2022-09-05T23:42:56.537Z,100.00
2022-09-05T23:45:24.890Z,100.00
2022-09-05T23:47:52.820Z,100.00
